sensor_id;sensor_type;location;lat;lon;timestamp;P1;durP1;ratioP1;P2;durP2;ratioP2
76758;SDS011;65701;45.588;5.186;2023-12-20T06:50:18;62.50;;;47.75;;
76758;SDS011;65701;45.588;5.186;2023-12-20T06:52:44;63.25;;;46.50;;
76758;SDS011;65701;45.588;5.186;2023-12-20T06:55:10;63.00;;;50.75;;
76758;SDS011;65701;45.588;5.186;2023-12-20T06:57:35;64.50;;;49.00;;
76758;SDS011;65701;45.588;5.186;2023-12-20T07:00:02;55.00;;;44.50;;
76758;SDS011;65701;45.588;5.186;2023-12-20T07:02:28;61.50;;;45.75;;
76758;SDS011;65701;45.588;5.186;2023-12-20T07:04:55;57.50;;;45.75;;
76758;SDS011;65701;45.588;5.186;2023-12-20T07:07:21;64.50;;;50.25;;
76758;SDS011;65701;45.588;5.186;2023-12-20T07:09:48;60.00;;;48.25;;
76758;SDS011;65701;45.588;5.186;2023-12-20T07:12:13;57.25;;;44.75;;
76758;SDS011;65701;45.588;5.186;2023-12-20T07:14:39;62.50;;;47.25;;
76758;SDS011;65701;45.588;5.186;2023-12-20T07:17:05;62.50;;;44.50;;
76758;SDS011;65701;45.588;5.186;2023-12-20T07:19:32;57.25;;;47.25;;
76758;SDS011;65701;45.588;5.186;2023-12-20T07:21:57;58.50;;;45.50;;
76758;SDS011;65701;45.588;5.186;2023-12-20T07:24:23;50.50;;;42.25;;
76758;SDS011;65701;45.588;5.186;2023-12-20T07:26:48;60.75;;;46.75;;
76758;SDS011;65701;45.588;5.186;2023-12-20T07:29:13;54.00;;;45.00;;
76758;SDS011;65701;45.588;5.186;2023-12-20T07:31:39;53.00;;;46.00;;
76758;SDS011;65701;45.588;5.186;2023-12-20T07:34:04;53.50;;;42.25;;
76758;SDS011;65701;45.588;5.186;2023-12-20T07:36:30;57.75;;;45.25;;
76758;SDS011;65701;45.588;5.186;2023-12-20T07:38:56;48.75;;;42.00;;
76758;SDS011;65701;45.588;5.186;2023-12-20T07:41:21;54.50;;;43.25;;
76758;SDS011;65701;45.588;5.186;2023-12-20T07:43:48;45.00;;;40.25;;
76758;SDS011;65701;45.588;5.186;2023-12-20T07:46:14;40.00;;;32.25;;
76758;SDS011;65701;45.588;5.186;2023-12-20T07:48:39;38.25;;;35.50;;
76758;SDS011;65701;45.588;5.186;2023-12-20T07:51:06;39.50;;;35.75;;
76758;SDS011;65701;45.588;5.186;2023-12-20T07:53:33;42.25;;;33.00;;
76758;SDS011;65701;45.588;5.186;2023-12-20T07:55:58;35.75;;;29.75;;
76758;SDS011;65701;45.588;5.186;2023-12-20T07:58:24;30.75;;;22.25;;
76758;SDS011;65701;45.588;5.186;2023-12-20T08:00:49;34.50;;;29.75;;
76758;SDS011;65701;45.588;5.186;2023-12-20T08:03:14;27.75;;;26.50;;
76758;SDS011;65701;45.588;5.186;2023-12-20T08:05:40;29.00;;;24.25;;
76758;SDS011;65701;45.588;5.186;2023-12-20T08:08:06;30.50;;;26.50;;
76758;SDS011;65701;45.588;5.186;2023-12-20T08:10:31;30.75;;;30.00;;
76758;SDS011;65701;45.588;5.186;2023-12-20T08:12:57;40.50;;;33.50;;
76758;SDS011;65701;45.588;5.186;2023-12-20T08:15:23;46.75;;;40.00;;
76758;SDS011;65701;45.588;5.186;2023-12-20T08:17:48;38.25;;;37.50;;
76758;SDS011;65701;45.588;5.186;2023-12-20T08:20:16;45.00;;;38.00;;
76758;SDS011;65701;45.588;5.186;2023-12-20T08:22:42;43.50;;;40.00;;
76758;SDS011;65701;45.588;5.186;2023-12-20T08:25:07;53.50;;;42.75;;
76758;SDS011;65701;45.588;5.186;2023-12-20T08:27:33;54.75;;;39.50;;
76758;SDS011;65701;45.588;5.186;2023-12-20T08:30:01;43.50;;;37.00;;
76758;SDS011;65701;45.588;5.186;2023-12-20T08:32:27;51.75;;;42.50;;
76758;SDS011;65701;45.588;5.186;2023-12-20T08:34:52;45.25;;;39.00;;
76758;SDS011;65701;45.588;5.186;2023-12-20T08:37:17;43.75;;;35.75;;
76758;SDS011;65701;45.588;5.186;2023-12-20T08:39:43;53.25;;;41.25;;
76758;SDS011;65701;45.588;5.186;2023-12-20T08:42:09;40.50;;;34.75;;
76758;SDS011;65701;45.588;5.186;2023-12-20T08:44:35;44.25;;;38.25;;
76758;SDS011;65701;45.588;5.186;2023-12-20T08:47:00;46.00;;;34.50;;
76758;SDS011;65701;45.588;5.186;2023-12-20T08:49:26;51.25;;;40.50;;
76758;SDS011;65701;45.588;5.186;2023-12-20T08:51:53;48.50;;;41.00;;
76758;SDS011;65701;45.588;5.186;2023-12-20T08:54:18;46.75;;;38.75;;
76758;SDS011;65701;45.588;5.186;2023-12-20T08:56:44;39.75;;;35.25;;
76758;SDS011;65701;45.588;5.186;2023-12-20T08:59:11;51.25;;;43.25;;
76758;SDS011;65701;45.588;5.186;2023-12-20T09:01:37;35.75;;;33.25;;
76758;SDS011;65701;45.588;5.186;2023-12-20T09:04:02;41.25;;;37.25;;
76758;SDS011;65701;45.588;5.186;2023-12-20T09:06:28;49.50;;;40.00;;
76758;SDS011;65701;45.588;5.186;2023-12-20T09:08:53;41.00;;;32.25;;
76758;SDS011;65701;45.588;5.186;2023-12-20T09:11:19;36.00;;;29.75;;
76758;SDS011;65701;45.588;5.186;2023-12-20T09:13:44;47.50;;;36.50;;
76758;SDS011;65701;45.588;5.186;2023-12-20T09:16:10;38.00;;;34.75;;
76758;SDS011;65701;45.588;5.186;2023-12-20T09:18:35;35.75;;;30.00;;
76758;SDS011;65701;45.588;5.186;2023-12-20T09:21:01;42.25;;;33.50;;
76758;SDS011;65701;45.588;5.186;2023-12-20T09:23:27;34.00;;;27.00;;
76758;SDS011;65701;45.588;5.186;2023-12-20T09:25:52;36.00;;;33.50;;
76758;SDS011;65701;45.588;5.186;2023-12-20T09:28:18;34.50;;;30.00;;
76758;SDS011;65701;45.588;5.186;2023-12-20T09:30:43;41.25;;;38.00;;
76758;SDS011;65701;45.588;5.186;2023-12-20T09:33:11;40.75;;;34.50;;
76758;SDS011;65701;45.588;5.186;2023-12-20T09:35:36;44.25;;;34.50;;
76758;SDS011;65701;45.588;5.186;2023-12-20T09:38:02;34.75;;;29.50;;
76758;SDS011;65701;45.588;5.186;2023-12-20T09:40:28;44.00;;;38.00;;
76758;SDS011;65701;45.588;5.186;2023-12-20T09:42:57;42.00;;;30.00;;
76758;SDS011;65701;45.588;5.186;2023-12-20T09:45:24;41.25;;;37.75;;
76758;SDS011;65701;45.588;5.186;2023-12-20T09:47:53;43.25;;;38.50;;
76758;SDS011;65701;45.588;5.186;2023-12-20T09:50:22;43.50;;;36.00;;
76758;SDS011;65701;45.588;5.186;2023-12-20T09:52:49;44.25;;;37.50;;
76758;SDS011;65701;45.588;5.186;2023-12-20T09:55:17;45.25;;;37.75;;
76758;SDS011;65701;45.588;5.186;2023-12-20T09:57:44;43.00;;;36.25;;
76758;SDS011;65701;45.588;5.186;2023-12-20T10:00:10;32.50;;;28.75;;
76758;SDS011;65701;45.588;5.186;2023-12-20T10:02:36;37.00;;;32.00;;
76758;SDS011;65701;45.588;5.186;2023-12-20T10:05:06;38.75;;;37.00;;
76758;SDS011;65701;45.588;5.186;2023-12-20T10:07:34;38.00;;;34.25;;
76758;SDS011;65701;45.588;5.186;2023-12-20T10:10:00;44.25;;;39.00;;
76758;SDS011;65701;45.588;5.186;2023-12-20T10:12:27;39.25;;;34.00;;
76758;SDS011;65701;45.588;5.186;2023-12-20T10:14:52;43.50;;;35.00;;
76758;SDS011;65701;45.588;5.186;2023-12-20T10:17:18;41.00;;;37.00;;
76758;SDS011;65701;45.588;5.186;2023-12-20T10:19:43;42.75;;;31.75;;
76758;SDS011;65701;45.588;5.186;2023-12-20T10:22:09;48.25;;;40.50;;
76758;SDS011;65701;45.588;5.186;2023-12-20T10:24:35;45.50;;;38.25;;
76758;SDS011;65701;45.588;5.186;2023-12-20T10:27:02;40.75;;;37.25;;
76758;SDS011;65701;45.588;5.186;2023-12-20T10:29:37;47.00;;;41.75;;
76758;SDS011;65701;45.588;5.186;2023-12-20T10:32:22;45.50;;;33.00;;
76758;SDS011;65701;45.588;5.186;2023-12-20T10:34:52;39.00;;;34.25;;
76758;SDS011;65701;45.588;5.186;2023-12-20T10:37:18;40.75;;;35.50;;
76758;SDS011;65701;45.588;5.186;2023-12-20T10:39:47;45.50;;;39.00;;
76758;SDS011;65701;45.588;5.186;2023-12-20T10:42:17;37.00;;;34.25;;
76758;SDS011;65701;45.588;5.186;2023-12-20T10:44:45;40.00;;;37.00;;
76758;SDS011;65701;45.588;5.186;2023-12-20T10:47:11;41.50;;;37.00;;
76758;SDS011;65701;45.588;5.186;2023-12-20T10:49:38;50.00;;;40.75;;
76758;SDS011;65701;45.588;5.186;2023-12-20T10:52:05;25.00;;;22.25;;
76758;SDS011;65701;45.588;5.186;2023-12-20T10:54:31;43.00;;;37.50;;
76758;SDS011;65701;45.588;5.186;2023-12-20T10:56:57;47.75;;;36.75;;
76758;SDS011;65701;45.588;5.186;2023-12-20T10:59:24;43.00;;;37.75;;
76758;SDS011;65701;45.588;5.186;2023-12-20T11:01:50;38.50;;;37.00;;
76758;SDS011;65701;45.588;5.186;2023-12-20T11:04:22;40.50;;;32.75;;
76758;SDS011;65701;45.588;5.186;2023-12-20T11:07:07;32.50;;;28.75;;
76758;SDS011;65701;45.588;5.186;2023-12-20T11:09:44;45.75;;;36.75;;
76758;SDS011;65701;45.588;5.186;2023-12-20T11:12:28;38.50;;;31.00;;
76758;SDS011;65701;45.588;5.186;2023-12-20T11:15:03;30.75;;;29.50;;
76758;SDS011;65701;45.588;5.186;2023-12-20T11:17:29;36.75;;;33.75;;
76758;SDS011;65701;45.588;5.186;2023-12-20T11:22:22;25.25;;;22.25;;
76758;SDS011;65701;45.588;5.186;2023-12-20T11:24:49;20.25;;;14.25;;
76758;SDS011;65701;45.588;5.186;2023-12-20T11:27:15;27.25;;;24.50;;
76758;SDS011;65701;45.588;5.186;2023-12-20T11:29:41;40.75;;;31.00;;
76758;SDS011;65701;45.588;5.186;2023-12-20T11:37:31;29.25;;;25.75;;
76758;SDS011;65701;45.588;5.186;2023-12-20T11:40:21;33.25;;;26.00;;
76758;SDS011;65701;45.588;5.186;2023-12-20T11:42:48;33.00;;;28.75;;
76758;SDS011;65701;45.588;5.186;2023-12-20T11:45:15;42.50;;;36.50;;
76758;SDS011;65701;45.588;5.186;2023-12-20T11:47:45;28.25;;;22.50;;
76758;SDS011;65701;45.588;5.186;2023-12-20T11:50:12;24.75;;;22.75;;
76758;SDS011;65701;45.588;5.186;2023-12-20T11:52:37;23.00;;;22.50;;
76758;SDS011;65701;45.588;5.186;2023-12-20T11:55:03;36.75;;;30.50;;
76758;SDS011;65701;45.588;5.186;2023-12-20T11:57:29;16.25;;;16.00;;
76758;SDS011;65701;45.588;5.186;2023-12-20T11:59:55;17.75;;;15.75;;
76758;SDS011;65701;45.588;5.186;2023-12-20T12:02:21;23.25;;;21.25;;
76758;SDS011;65701;45.588;5.186;2023-12-20T12:04:50;8.75;;;7.75;;
76758;SDS011;65701;45.588;5.186;2023-12-20T12:07:18;19.50;;;14.50;;
76758;SDS011;65701;45.588;5.186;2023-12-20T12:09:45;13.00;;;12.00;;
76758;SDS011;65701;45.588;5.186;2023-12-20T12:12:11;16.25;;;13.50;;
76758;SDS011;65701;45.588;5.186;2023-12-20T12:14:37;15.25;;;12.50;;
76758;SDS011;65701;45.588;5.186;2023-12-20T12:17:05;17.75;;;14.75;;
76758;SDS011;65701;45.588;5.186;2023-12-20T12:19:35;11.50;;;9.25;;
76758;SDS011;65701;45.588;5.186;2023-12-20T12:22:09;8.00;;;8.00;;
76758;SDS011;65701;45.588;5.186;2023-12-20T12:24:41;9.00;;;9.00;;
76758;SDS011;65701;45.588;5.186;2023-12-20T12:27:10;6.00;;;6.00;;
76758;SDS011;65701;45.588;5.186;2023-12-20T12:29:36;12.50;;;11.75;;
76758;SDS011;65701;45.588;5.186;2023-12-20T12:32:11;11.50;;;8.50;;
76758;SDS011;65701;45.588;5.186;2023-12-20T12:34:37;12.00;;;12.00;;
76758;SDS011;65701;45.588;5.186;2023-12-20T12:37:05;13.75;;;11.00;;
76758;SDS011;65701;45.588;5.186;2023-12-20T12:39:31;10.00;;;9.25;;
76758;SDS011;65701;45.588;5.186;2023-12-20T12:41:57;11.25;;;8.50;;
76758;SDS011;65701;45.588;5.186;2023-12-20T12:44:22;14.50;;;12.00;;
76758;SDS011;65701;45.588;5.186;2023-12-20T12:46:51;16.00;;;10.50;;
76758;SDS011;65701;45.588;5.186;2023-12-20T12:49:19;8.50;;;8.00;;
76758;SDS011;65701;45.588;5.186;2023-12-20T12:51:46;12.75;;;11.75;;
76758;SDS011;65701;45.588;5.186;2023-12-20T12:54:11;11.25;;;11.25;;
76758;SDS011;65701;45.588;5.186;2023-12-20T12:56:38;21.25;;;19.00;;
76758;SDS011;65701;45.588;5.186;2023-12-20T12:59:04;11.00;;;8.00;;
76758;SDS011;65701;45.588;5.186;2023-12-20T13:01:30;9.00;;;8.00;;
76758;SDS011;65701;45.588;5.186;2023-12-20T13:03:56;11.75;;;11.00;;
76758;SDS011;65701;45.588;5.186;2023-12-20T13:06:22;9.25;;;9.25;;
76758;SDS011;65701;45.588;5.186;2023-12-20T13:08:47;10.75;;;10.75;;
76758;SDS011;65701;45.588;5.186;2023-12-20T13:11:13;8.00;;;6.25;;
76758;SDS011;65701;45.588;5.186;2023-12-20T13:13:38;13.00;;;9.25;;
76758;SDS011;65701;45.588;5.186;2023-12-20T13:16:04;12.75;;;11.00;;
76758;SDS011;65701;45.588;5.186;2023-12-20T13:18:30;5.25;;;5.25;;
76758;SDS011;65701;45.588;5.186;2023-12-20T13:20:55;13.00;;;8.75;;
76758;SDS011;65701;45.588;5.186;2023-12-20T13:23:21;11.50;;;10.50;;
76758;SDS011;65701;45.588;5.186;2023-12-20T13:25:46;11.50;;;10.00;;
76758;SDS011;65701;45.588;5.186;2023-12-20T13:28:12;6.00;;;5.75;;
76758;SDS011;65701;45.588;5.186;2023-12-20T13:30:38;8.75;;;8.75;;
76758;SDS011;65701;45.588;5.186;2023-12-20T13:33:04;17.75;;;12.50;;
76758;SDS011;65701;45.588;5.186;2023-12-20T13:35:30;11.75;;;10.75;;
76758;SDS011;65701;45.588;5.186;2023-12-20T13:37:56;12.00;;;8.50;;
76758;SDS011;65701;45.588;5.186;2023-12-20T13:40:22;16.50;;;12.75;;
76758;SDS011;65701;45.588;5.186;2023-12-20T13:42:48;10.00;;;10.00;;
76758;SDS011;65701;45.588;5.186;2023-12-20T13:45:13;7.50;;;7.50;;
76758;SDS011;65701;45.588;5.186;2023-12-20T13:47:39;5.75;;;5.75;;
76758;SDS011;65701;45.588;5.186;2023-12-20T13:50:04;9.50;;;7.00;;
76758;SDS011;65701;45.588;5.186;2023-12-20T13:52:30;17.25;;;15.25;;
76758;SDS011;65701;45.588;5.186;2023-12-20T13:54:56;11.25;;;8.00;;
76758;SDS011;65701;45.588;5.186;2023-12-20T13:57:21;11.75;;;10.25;;
76758;SDS011;65701;45.588;5.186;2023-12-20T13:59:47;15.25;;;12.75;;
76758;SDS011;65701;45.588;5.186;2023-12-20T14:02:13;13.00;;;12.00;;
76758;SDS011;65701;45.588;5.186;2023-12-20T14:04:38;12.75;;;12.25;;
76758;SDS011;65701;45.588;5.186;2023-12-20T14:07:04;14.00;;;10.25;;
76758;SDS011;65701;45.588;5.186;2023-12-20T14:09:30;12.75;;;9.25;;
76758;SDS011;65701;45.588;5.186;2023-12-20T14:11:55;11.50;;;11.00;;
76758;SDS011;65701;45.588;5.186;2023-12-20T14:14:21;10.25;;;10.25;;
76758;SDS011;65701;45.588;5.186;2023-12-20T14:16:46;8.00;;;7.25;;
76758;SDS011;65701;45.588;5.186;2023-12-20T14:19:12;13.00;;;12.00;;
76758;SDS011;65701;45.588;5.186;2023-12-20T14:21:37;7.00;;;6.25;;
76758;SDS011;65701;45.588;5.186;2023-12-20T14:24:03;7.50;;;7.00;;
76758;SDS011;65701;45.588;5.186;2023-12-20T14:26:30;12.50;;;11.00;;
76758;SDS011;65701;45.588;5.186;2023-12-20T14:28:56;9.75;;;9.00;;
76758;SDS011;65701;45.588;5.186;2023-12-20T14:31:23;4.00;;;4.00;;
76758;SDS011;65701;45.588;5.186;2023-12-20T14:33:55;5.50;;;3.25;;
76758;SDS011;65701;45.588;5.186;2023-12-20T14:36:21;12.75;;;12.75;;
76758;SDS011;65701;45.588;5.186;2023-12-20T14:38:46;7.50;;;5.75;;
76758;SDS011;65701;45.588;5.186;2023-12-20T14:41:12;1.75;;;1.75;;
76758;SDS011;65701;45.588;5.186;2023-12-20T14:43:38;4.25;;;4.25;;
76758;SDS011;65701;45.588;5.186;2023-12-20T14:46:03;3.00;;;3.00;;
76758;SDS011;65701;45.588;5.186;2023-12-20T14:48:30;4.25;;;4.25;;
76758;SDS011;65701;45.588;5.186;2023-12-20T14:50:57;8.00;;;8.00;;
76758;SDS011;65701;45.588;5.186;2023-12-20T14:53:24;4.50;;;4.50;;
76758;SDS011;65701;45.588;5.186;2023-12-20T14:55:50;6.00;;;5.25;;
76758;SDS011;65701;45.588;5.186;2023-12-20T14:58:16;3.75;;;3.75;;
76758;SDS011;65701;45.588;5.186;2023-12-20T15:00:44;27.75;;;26.50;;
76758;SDS011;65701;45.588;5.186;2023-12-20T15:03:10;6.75;;;3.25;;
76758;SDS011;65701;45.588;5.186;2023-12-20T15:05:35;5.25;;;3.00;;
76758;SDS011;65701;45.588;5.186;2023-12-20T15:08:01;2.25;;;2.25;;
76758;SDS011;65701;45.588;5.186;2023-12-20T15:10:28;3.75;;;3.75;;
76758;SDS011;65701;45.588;5.186;2023-12-20T15:12:55;7.50;;;4.00;;
76758;SDS011;65701;45.588;5.186;2023-12-20T15:15:21;2.25;;;2.25;;
76758;SDS011;65701;45.588;5.186;2023-12-20T15:17:47;3.00;;;3.00;;
76758;SDS011;65701;45.588;5.186;2023-12-20T15:20:12;10.75;;;7.75;;
76758;SDS011;65701;45.588;5.186;2023-12-20T15:22:38;3.00;;;3.00;;
76758;SDS011;65701;45.588;5.186;2023-12-20T15:25:08;7.25;;;7.00;;
76758;SDS011;65701;45.588;5.186;2023-12-20T15:27:34;8.00;;;4.25;;
76758;SDS011;65701;45.588;5.186;2023-12-20T15:30:04;11.00;;;7.75;;
76758;SDS011;65701;45.588;5.186;2023-12-20T15:32:34;23.50;;;23.25;;
76758;SDS011;65701;45.588;5.186;2023-12-20T15:35:01;16.50;;;12.50;;
76758;SDS011;65701;45.588;5.186;2023-12-20T15:37:27;7.75;;;6.00;;
76758;SDS011;65701;45.588;5.186;2023-12-20T15:39:53;6.50;;;3.50;;
76758;SDS011;65701;45.588;5.186;2023-12-20T15:42:18;8.75;;;6.50;;
76758;SDS011;65701;45.588;5.186;2023-12-20T15:44:44;6.50;;;6.50;;
76758;SDS011;65701;45.588;5.186;2023-12-20T15:47:10;6.00;;;5.25;;
76758;SDS011;65701;45.588;5.186;2023-12-20T15:49:35;12.50;;;7.75;;
76758;SDS011;65701;45.588;5.186;2023-12-20T15:52:01;10.00;;;5.25;;
76758;SDS011;65701;45.588;5.186;2023-12-20T15:54:26;10.00;;;7.75;;
76758;SDS011;65701;45.588;5.186;2023-12-20T15:56:51;7.25;;;7.25;;
76758;SDS011;65701;45.588;5.186;2023-12-20T15:59:18;6.00;;;5.00;;
76758;SDS011;65701;45.588;5.186;2023-12-20T16:01:43;5.00;;;5.00;;
76758;SDS011;65701;45.588;5.186;2023-12-20T16:04:09;6.00;;;6.00;;
76758;SDS011;65701;45.588;5.186;2023-12-20T16:06:35;3.50;;;3.50;;
76758;SDS011;65701;45.588;5.186;2023-12-20T16:09:02;7.50;;;7.50;;
76758;SDS011;65701;45.588;5.186;2023-12-20T16:11:27;10.75;;;8.25;;
76758;SDS011;65701;45.588;5.186;2023-12-20T16:13:54;9.00;;;6.25;;
76758;SDS011;65701;45.588;5.186;2023-12-20T16:16:19;5.50;;;5.50;;
76758;SDS011;65701;45.588;5.186;2023-12-20T16:18:45;12.75;;;11.50;;
76758;SDS011;65701;45.588;5.186;2023-12-20T16:21:11;9.50;;;7.50;;
76758;SDS011;65701;45.588;5.186;2023-12-20T16:23:36;12.00;;;10.25;;
76758;SDS011;65701;45.588;5.186;2023-12-20T16:26:02;8.25;;;8.25;;
76758;SDS011;65701;45.588;5.186;2023-12-20T16:28:28;10.50;;;8.25;;
76758;SDS011;65701;45.588;5.186;2023-12-20T16:30:53;12.25;;;8.75;;
76758;SDS011;65701;45.588;5.186;2023-12-20T16:33:20;14.75;;;12.50;;
76758;SDS011;65701;45.588;5.186;2023-12-20T16:35:46;7.00;;;7.00;;
76758;SDS011;65701;45.588;5.186;2023-12-20T16:38:12;9.25;;;8.00;;
76758;SDS011;65701;45.588;5.186;2023-12-20T16:40:37;20.50;;;19.50;;
76758;SDS011;65701;45.588;5.186;2023-12-20T16:43:03;64.75;;;52.75;;
76758;SDS011;65701;45.588;5.186;2023-12-20T16:45:28;11.25;;;8.25;;
76758;SDS011;65701;45.588;5.186;2023-12-20T16:47:54;6.00;;;6.00;;
76758;SDS011;65701;45.588;5.186;2023-12-20T16:50:20;11.00;;;8.75;;
76758;SDS011;65701;45.588;5.186;2023-12-20T16:52:46;12.25;;;7.75;;
76758;SDS011;65701;45.588;5.186;2023-12-20T16:55:16;11.75;;;8.00;;
76758;SDS011;65701;45.588;5.186;2023-12-20T16:57:42;17.00;;;15.75;;
76758;SDS011;65701;45.588;5.186;2023-12-20T17:00:07;18.25;;;18.25;;
76758;SDS011;65701;45.588;5.186;2023-12-20T17:02:33;12.75;;;12.75;;
76758;SDS011;65701;45.588;5.186;2023-12-20T17:04:59;25.50;;;23.00;;
76758;SDS011;65701;45.588;5.186;2023-12-20T17:07:24;16.50;;;15.00;;
76758;SDS011;65701;45.588;5.186;2023-12-20T17:09:50;18.75;;;18.75;;
76758;SDS011;65701;45.588;5.186;2023-12-20T17:12:16;8.25;;;8.25;;
76758;SDS011;65701;45.588;5.186;2023-12-20T17:14:42;14.25;;;14.25;;
76758;SDS011;65701;45.588;5.186;2023-12-20T17:17:07;14.50;;;14.50;;
76758;SDS011;65701;45.588;5.186;2023-12-20T17:19:34;20.00;;;17.50;;
76758;SDS011;65701;45.588;5.186;2023-12-20T17:22:00;18.00;;;15.75;;
76758;SDS011;65701;45.588;5.186;2023-12-20T17:24:28;12.25;;;12.25;;
76758;SDS011;65701;45.588;5.186;2023-12-20T17:26:53;15.25;;;13.25;;
76758;SDS011;65701;45.588;5.186;2023-12-20T17:29:19;15.25;;;15.00;;
76758;SDS011;65701;45.588;5.186;2023-12-20T17:31:44;18.50;;;15.00;;
76758;SDS011;65701;45.588;5.186;2023-12-20T17:34:10;19.25;;;17.75;;
76758;SDS011;65701;45.588;5.186;2023-12-20T17:36:39;17.50;;;17.00;;
76758;SDS011;65701;45.588;5.186;2023-12-20T17:39:06;29.50;;;27.75;;
76758;SDS011;65701;45.588;5.186;2023-12-20T17:41:31;33.75;;;29.50;;
76758;SDS011;65701;45.588;5.186;2023-12-20T17:44:03;20.50;;;20.25;;
76758;SDS011;65701;45.588;5.186;2023-12-20T17:46:29;27.00;;;25.25;;
76758;SDS011;65701;45.588;5.186;2023-12-20T17:48:54;22.50;;;18.00;;
76758;SDS011;65701;45.588;5.186;2023-12-20T17:51:21;24.75;;;24.25;;
76758;SDS011;65701;45.588;5.186;2023-12-20T17:53:47;19.25;;;19.00;;
76758;SDS011;65701;45.588;5.186;2023-12-20T17:56:12;20.50;;;20.00;;
76758;SDS011;65701;45.588;5.186;2023-12-20T17:58:38;24.00;;;21.75;;
76758;SDS011;65701;45.588;5.186;2023-12-20T18:01:03;24.25;;;22.25;;
76758;SDS011;65701;45.588;5.186;2023-12-20T18:03:29;23.50;;;19.50;;
76758;SDS011;65701;45.588;5.186;2023-12-20T18:05:54;21.75;;;20.75;;
76758;SDS011;65701;45.588;5.186;2023-12-20T18:08:20;20.75;;;20.25;;
76758;SDS011;65701;45.588;5.186;2023-12-20T18:10:45;30.00;;;24.50;;
76758;SDS011;65701;45.588;5.186;2023-12-20T18:13:11;26.00;;;23.75;;
76758;SDS011;65701;45.588;5.186;2023-12-20T18:15:36;23.25;;;22.75;;
76758;SDS011;65701;45.588;5.186;2023-12-20T18:18:02;35.25;;;23.00;;
76758;SDS011;65701;45.588;5.186;2023-12-20T18:20:28;27.00;;;20.25;;
76758;SDS011;65701;45.588;5.186;2023-12-20T18:22:54;25.50;;;25.50;;
76758;SDS011;65701;45.588;5.186;2023-12-20T18:25:19;24.50;;;19.50;;
76758;SDS011;65701;45.588;5.186;2023-12-20T18:27:45;20.50;;;19.00;;
76758;SDS011;65701;45.588;5.186;2023-12-20T18:30:11;19.50;;;18.00;;
76758;SDS011;65701;45.588;5.186;2023-12-20T18:32:37;10.75;;;10.00;;
76758;SDS011;65701;45.588;5.186;2023-12-20T18:35:02;10.75;;;9.50;;
76758;SDS011;65701;45.588;5.186;2023-12-20T18:37:28;16.00;;;14.50;;
76758;SDS011;65701;45.588;5.186;2023-12-20T18:39:54;17.50;;;12.00;;
76758;SDS011;65701;45.588;5.186;2023-12-20T18:42:20;12.00;;;11.00;;
76758;SDS011;65701;45.588;5.186;2023-12-20T18:44:46;10.00;;;9.75;;
76758;SDS011;65701;45.588;5.186;2023-12-20T18:47:12;11.75;;;11.75;;
76758;SDS011;65701;45.588;5.186;2023-12-20T18:49:38;18.75;;;15.25;;
76758;SDS011;65701;45.588;5.186;2023-12-20T18:52:03;17.25;;;14.00;;
76758;SDS011;65701;45.588;5.186;2023-12-20T18:54:31;21.50;;;19.50;;
76758;SDS011;65701;45.588;5.186;2023-12-20T18:56:57;19.25;;;19.00;;
76758;SDS011;65701;45.588;5.186;2023-12-20T18:59:22;27.00;;;23.75;;
76758;SDS011;65701;45.588;5.186;2023-12-20T19:01:49;20.25;;;17.50;;
76758;SDS011;65701;45.588;5.186;2023-12-20T19:04:15;18.25;;;16.25;;
76758;SDS011;65701;45.588;5.186;2023-12-20T19:06:41;11.50;;;10.75;;
76758;SDS011;65701;45.588;5.186;2023-12-20T19:09:06;12.00;;;11.00;;
76758;SDS011;65701;45.588;5.186;2023-12-20T19:11:32;19.25;;;16.50;;
76758;SDS011;65701;45.588;5.186;2023-12-20T19:13:58;12.50;;;12.00;;
76758;SDS011;65701;45.588;5.186;2023-12-20T19:16:24;9.75;;;8.25;;
76758;SDS011;65701;45.588;5.186;2023-12-20T19:18:50;14.50;;;11.75;;
76758;SDS011;65701;45.588;5.186;2023-12-20T19:21:15;9.75;;;9.75;;
76758;SDS011;65701;45.588;5.186;2023-12-20T19:23:42;12.75;;;7.25;;
76758;SDS011;65701;45.588;5.186;2023-12-20T19:26:11;11.25;;;10.00;;
76758;SDS011;65701;45.588;5.186;2023-12-20T19:28:40;10.00;;;9.25;;
76758;SDS011;65701;45.588;5.186;2023-12-20T19:31:06;15.00;;;11.75;;
76758;SDS011;65701;45.588;5.186;2023-12-20T19:33:38;11.00;;;7.00;;
76758;SDS011;65701;45.588;5.186;2023-12-20T19:36:04;13.00;;;10.50;;
76758;SDS011;65701;45.588;5.186;2023-12-20T19:38:36;9.50;;;6.00;;
76758;SDS011;65701;45.588;5.186;2023-12-20T19:41:02;8.50;;;5.75;;
76758;SDS011;65701;45.588;5.186;2023-12-20T19:43:28;10.50;;;9.00;;
76758;SDS011;65701;45.588;5.186;2023-12-20T19:45:54;10.00;;;10.00;;
76758;SDS011;65701;45.588;5.186;2023-12-20T19:48:19;9.75;;;9.75;;
76758;SDS011;65701;45.588;5.186;2023-12-20T19:50:45;10.00;;;10.00;;
76758;SDS011;65701;45.588;5.186;2023-12-20T19:53:12;10.75;;;9.25;;
76758;SDS011;65701;45.588;5.186;2023-12-20T19:55:38;9.50;;;9.50;;
76758;SDS011;65701;45.588;5.186;2023-12-20T19:58:04;12.50;;;10.50;;
76758;SDS011;65701;45.588;5.186;2023-12-20T20:00:29;9.00;;;9.00;;
76758;SDS011;65701;45.588;5.186;2023-12-20T20:02:55;10.00;;;9.50;;
76758;SDS011;65701;45.588;5.186;2023-12-20T20:05:21;15.25;;;11.25;;
76758;SDS011;65701;45.588;5.186;2023-12-20T20:07:46;10.75;;;10.00;;
76758;SDS011;65701;45.588;5.186;2023-12-20T20:10:12;13.00;;;11.75;;
76758;SDS011;65701;45.588;5.186;2023-12-20T20:12:38;17.00;;;13.50;;
76758;SDS011;65701;45.588;5.186;2023-12-20T20:15:04;16.50;;;14.75;;
76758;SDS011;65701;45.588;5.186;2023-12-20T20:17:30;23.50;;;17.00;;
76758;SDS011;65701;45.588;5.186;2023-12-20T20:19:55;18.75;;;18.50;;
76758;SDS011;65701;45.588;5.186;2023-12-20T20:22:21;19.00;;;16.00;;
76758;SDS011;65701;45.588;5.186;2023-12-20T20:24:46;20.50;;;18.75;;
76758;SDS011;65701;45.588;5.186;2023-12-20T20:27:12;25.00;;;20.25;;
76758;SDS011;65701;45.588;5.186;2023-12-20T20:29:38;24.25;;;21.50;;
76758;SDS011;65701;45.588;5.186;2023-12-20T20:32:04;27.25;;;23.75;;
76758;SDS011;65701;45.588;5.186;2023-12-20T20:34:30;21.00;;;19.75;;
76758;SDS011;65701;45.588;5.186;2023-12-20T20:36:56;18.25;;;18.00;;
76758;SDS011;65701;45.588;5.186;2023-12-20T20:39:21;26.75;;;24.25;;
76758;SDS011;65701;45.588;5.186;2023-12-20T20:41:48;29.75;;;25.75;;
76758;SDS011;65701;45.588;5.186;2023-12-20T20:44:14;30.75;;;28.25;;
76758;SDS011;65701;45.588;5.186;2023-12-20T20:46:39;21.75;;;18.75;;
76758;SDS011;65701;45.588;5.186;2023-12-20T20:49:05;26.00;;;22.00;;
76758;SDS011;65701;45.588;5.186;2023-12-20T20:51:31;20.25;;;20.25;;
76758;SDS011;65701;45.588;5.186;2023-12-20T20:53:56;23.25;;;21.00;;
76758;SDS011;65701;45.588;5.186;2023-12-20T20:56:22;25.50;;;21.75;;
76758;SDS011;65701;45.588;5.186;2023-12-20T21:01:23;26.33;;;23.00;;
76758;SDS011;65701;45.588;5.186;2023-12-20T21:03:48;10.00;;;10.00;;
76758;SDS011;65701;45.588;5.186;2023-12-20T21:06:14;23.00;;;21.75;;
76758;SDS011;65701;45.588;5.186;2023-12-20T21:08:40;26.00;;;19.50;;
76758;SDS011;65701;45.588;5.186;2023-12-20T21:11:05;20.25;;;19.00;;
76758;SDS011;65701;45.588;5.186;2023-12-20T21:13:31;17.75;;;16.75;;
76758;SDS011;65701;45.588;5.186;2023-12-20T21:15:56;23.00;;;19.75;;
76758;SDS011;65701;45.588;5.186;2023-12-20T21:18:22;21.00;;;15.00;;
76758;SDS011;65701;45.588;5.186;2023-12-20T21:20:48;20.00;;;19.25;;
76758;SDS011;65701;45.588;5.186;2023-12-20T21:23:14;23.00;;;16.00;;
